Central Sonoma County Latest

37 Stations

15 Minute Data | America/Los_Angeles
as of 9/3/26 4:01 AM PDT
Station Date Time Temp (°F) RH (%) Dew Pt (°F) Wind Spd (mph) Wind Dir (°) Wind Gust (mph) Latest Rain (In) Daily Rain (In) Daily Max Temp (°F) Daily Min Temp (°F)
Windsor-NW (Ranch 8) 9/3/26 0400 59.2   0.6 83   1 54.1   0.2 0.0   0.0 SSW | 204 0.0   0.0 0.00 0.00 59.4   1.8 58.8   0.9
Windsor-East (Ranch 16) 9/3/26 0400 60.8   1.1 85   5 56.3   0.6 1.0   0.9 E | 97 3.2   1.1 0.00 0.00 60.9   0.3 59.1   0.5
Mark West-North (Ranch 14) 9/3/26 0400 61.0   1.2 84   7 56.2   1.0 0.6   0.1 WSW | 256 2.3   0.1 0.00 0.00 61.2   0.2 59.8   0.0
Windsor-SE (Silk Rd) 9/3/26 0400 60.0   0.0 92   2 57.9   0.5 0.7   0.4 SW | 223 1.9   1.5 0.00 0.00 60.2   1.4 58.5   1.4
Fulton-NW (Ranch 5) 9/3/26 0400 61.1   1.4 87   7 57.2   0.7 2.1   0.4 ESE | 115 3.1   1.8 0.00 0.00 61.2   0.4 59.6   0.1
Bisordi (Fulton) 9/3/26 0400 61.3   1.5 87   5 57.4   0.1 1.0   1.1 SE | 136 2.4   1.9 0.00 0.00 61.3   0.2 59.2   0.5
Windsor-South (Laughlin Rd) 9/3/26 0400 59.9   0.1 89   2 56.7   0.5 - - - 0.00 0.00 60.1   1.0 58.6   1.2
Fulton-SE (Barnes Rd) 9/3/26 0400 61.6   1.5 85   6 57.1   0.3 1.2   1.6 ESE | 111 4.3   0.8 0.00 0.00 61.6   0.4 60.1   0.1
Fulton-SW (Ranch 21) 9/3/26 0400 60.4   1.0 90   1 57.6   0.6 1.2   0.0 S | 174 3.4   0.1 0.00 0.00 60.5   0.4 57.4   2.0
NW Santa Rosa (Piner Road) 9/3/26 0400 59.9   0.0 100   0 59.9   0.0 0.4   0.1 S | 182 1.3   0.3 0.00 0.00 60.1   0.8 56.2   3.7
River Rd South (Denner Ranch) 9/3/26 0400 58.0   0.4 0   0 -59.9   0.2 0.8   0.5 SSE | 153 1.5   0.9 - - 58.3   1.2 56.0   2.1
West Santa Rosa (LOV Vineyard) 8/26/26 0900 53.3   5.2 97   6 52.4   3.5 1.0   0.1 SW | 224 3.6   0.0 0.00 0.00 53.6   5.2 50.2   1.8
Guerneville Rd (Prokopakis) 9/3/26 0400 59.2   0.3 95   2 57.8   0.1 - - - 0.00 0.00 59.4   0.9 56.9   2.5
SunnyView Vineyard (SCWC) 9/3/26 0400 59.7   0.5 91   1 57.1   0.3 0.5   0.5 S | 179 2.4   1.5 0.00 0.00 59.9   0.5 55.5   3.7
Guerneville Rd West (Balletto) 9/3/26 0400 60.2   0.4 95   0 58.7   0.5 0.5   0.0 SSE | 165 1.6   0.3 0.00 0.00 60.3   0.5 58.2   1.5
Sanchietti Ranch 9/3/26 0400 61.8   2.3 90   1 59.0   1.9 2.1   0.4 SSE | 152 3.8   0.7 0.00 0.00 61.8   0.6 58.5   0.0
Occidental Rd (Sebastopol) 9/3/26 0400 60.5   1.9 100   0 60.5   1.9 0.4   0.5 SE | 144 2.2   0.4 0.00 0.00 60.7   0.7 57.5   0.1
Harper's Rest (Windsor-West) 9/3/26 0400 58.3   0.5 93   1 56.2   0.1 0.0   0.5 N | 0 0.0   2.7 0.00 0.00 58.4   1.0 55.8   2.5
Lower Westside Rd (Ranch 12) 9/3/26 0400 58.2   1.3 95   2 56.7   0.5 0.3   0.3 WSW | 245 1.3   1.3 0.00 0.00 58.3   1.8 55.6   3.6
Guerneville (Laughlin Rd) 9/3/26 0400 58.1   0.2 93   1 56.0   0.5 0.0   0.1 N | 0 0.0   1.2 0.00 0.00 58.1   0.8 56.4   1.6
Korbel (Winery) 9/3/26 0400 58.7   0.7 93   1 56.8   1.1 0.0   0.6 WNW | 290 0.5   1.9 0.00 0.00 58.7   1.0 57.4   1.8
Forestville (Shone Farms) 9/3/26 0400 59.5   0.1 93   2 57.6   0.5 0.5   0.2 SW | 217 2.3   0.3 0.00 0.00 60.6   1.1 57.7   1.0
Forestville-NE (Ranch 30) 9/3/26 0400 58.2   0.7 96   1 57.2   0.5 0.0   1.4 NNW | 345 1.0   2.3 0.00 0.00 58.2   1.4 56.6   1.9
Foggy Bend (Ranch 41) 9/3/26 0400 59.3   0.6 93   0 57.3   0.7 0.2   0.5 SW | 231 1.6   0.3 0.00 0.00 59.4   1.3 57.7   2.1
Last Stop 9/3/26 0400 59.6   0.2 91   1 57.0   0.0 0.5   0.5 WNW | 303 1.6   1.0 0.00 0.00 59.6   0.9 57.7   1.4
Green Valley Vineyard 9/3/26 0400 58.8   0.3 95   1 57.3   0.1 0.5   0.0 WSW | 246 1.8   0.4 0.00 0.00 59.1   0.8 56.9   1.3
Park Royal 9/3/26 0400 61.3   2.0 86   5 57.0   0.4 - - - 0.00 0.00 61.4   0.4 58.2   1.2
Merino 9/3/26 0400 60.4   1.3 96   0 59.2   1.4 1.3   1.1 SSE | 155 4.5   3.4 0.00 0.00 60.6   1.0 56.8   0.5
Green Valley (Sanchietti) 9/3/26 0400 59.3   0.3 - - - - - - - 59.4   0.7 56.0   2.8
Keefer Ranch (Green Valley) 9/3/26 0400 59.2   0.0 95   1 57.7   0.3 - - - 0.00 0.00 59.3   0.5 57.4   1.6
Graton-West (Dutton Ranch) 9/3/26 0400 59.4   0.3 100   0 59.4   0.2 0.0   1.5 N | 0 0.0   3.9 0.00 0.00 59.5   1.9 57.6   1.7
Graton-South (Mill Station Rd) 9/3/26 0400 59.2   0.3 94   0 57.5   0.3 0.0   0.0 N | 0 0.0   0.0 0.00 0.00 59.5   1.2 58.0   0.5
Occidental (Horseshoe Bend) 9/3/26 0400 59.7   1.5 100   3 59.7   2.4 - - - 0.00 0.00 59.7   1.0 58.9   0.8
Sexton Valley (Jacqueline's Blk) 9/3/26 0345 60.5   1.5 96   1 59.4   1.7 0.0   0.3 N | 0 0.0   1.1 0.00 0.00 60.6   0.5 59.2   2.7
Sebastopol Hills (Burnside Rd) 9/3/26 0400 60.0   2.0 98   1 59.6   2.2 0.1   0.0 SE | 142 1.8   0.5 0.00 0.00 60.2   0.9 59.5   1.5
Pleasant Hill 9/3/26 0400 60.5   2.5 93   1 58.6   2.2 0.7   0.1 SE | 142 2.3   0.5 0.00 0.00 60.6   2.0 60.0   3.7
Seaview/Fort Ross (Hirsch) 9/3/26 0400 57.6   1.9 97   0 56.8   1.9 2.0   2.0 SSW | 210 4.5   9.0 0.00 0.00 57.7   1.5 56.6   1.3
Max     61.8 100 60.5 2.1 - 4.5 0.00 0.00 61.8 60.1
Avg     59.7 90 54.3 0.6 - 1.9 0.00 - - -
Min     57.6 0 -59.9 0.0 - 0.0 0.00 0.00 57.7 55.5